Форум клана ЧПУшников

Информация о пользователе

Привет, Гость! Войдите или зарегистрируйтесь.


Вы здесь » Форум клана ЧПУшников » Лазерные станки


Лазерные станки

Тем 1 страница 80 из 553

Тема Ответов Просмотров Последнее сообщение
879 64758 09-12-2019 18:33:47  Burlakov_A_V
672 14528 08-12-2019 04:37:13  IgorFa
166 7812 14-03-2019 15:48:56  Vegas 52
21 1798 Вчера 16:09:46  yri71
3 66 10-12-2019 11:03:59  Kuz
6 Trocen vs RUIDA  ptolik
11 529 08-12-2019 17:37:51  Andrew_SV_GAD
0 41 05-12-2019 17:41:41  t0lianchik
25 928 03-12-2019 16:43:35  Andy52280
0 24 03-12-2019 02:41:51  TStarik
4 136 02-12-2019 18:43:32  urim
9 160 26-11-2019 12:56:24  denisej
6 85 25-11-2019 22:24:27  Jek44
0 41 24-11-2019 19:02:20  Smol57
26 1043 23-11-2019 09:11:30  vlad34
10 252 22-11-2019 17:40:21  Калач!
10 192 19-11-2019 09:51:15  yurvalsem
70 4770 16-11-2019 01:19:35  anarxi
2 74 15-11-2019 18:31:48  koolobok
165 12568 15-11-2019 10:03:35  izostudia
224 22886 12-11-2019 19:44:38  Коснстантин
3 160 11-11-2019 10:35:48  Kuz
3 176 09-11-2019 20:41:41  vasa29
3 135 03-11-2019 22:24:39  stapelmoor
13 295 31-10-2019 12:30:02  Andy52280
4 148 29-10-2019 13:36:03  Andy52280
3 67 24-10-2019 20:55:44  Artem14717
1 45 21-10-2019 12:48:49  Kuz
4 1542 16-10-2019 00:31:27  Kenny
9 169 11-10-2019 11:13:41  shatrovmaxim
24 509 01-10-2019 16:22:23  ilya37rus
332 17225 01-10-2019 15:18:13  ilya37rus
206 9856 25-09-2019 16:37:52  adres
4 98 23-09-2019 16:55:57  adres
16 370 21-09-2019 13:50:03  ydav75
44 1263 21-09-2019 13:15:26  ydav75
10 313 21-09-2019 11:07:05  Борис Мишагин
2 85 19-09-2019 13:00:43  chirik
341 31941 19-09-2019 11:34:20  ilya37rus
8 329 17-09-2019 08:02:32  shatrovmaxim
16 618 09-09-2019 18:55:47  tonks
20 216 31-08-2019 11:26:41  valeribeglaryan
1 106 30-08-2019 01:45:31  ilya37rus
4 213 26-08-2019 21:46:47  Dandarrio
197 7451 26-08-2019 21:33:53  Dandarrio
7 182 26-08-2019 08:52:34  nevborisov26
12 305 19-08-2019 06:59:33  Kinetic
2 177 16-08-2019 15:19:26  ilya37rus
48 На ходу пропал луч.  Анатолий w38
3 108 16-08-2019 10:46:54  Andy52280
7 155 16-08-2019 06:23:10  serge78ss
1 107 14-08-2019 20:26:11  ilya37rus
2 135 13-08-2019 07:21:14  RD3
1 69 01-08-2019 17:14:40  Sanana
14 361 25-07-2019 18:15:23  jane
24 370 25-07-2019 10:26:34  Kuz
16 365 24-07-2019 12:28:25  Alex76
10 250 19-07-2019 12:54:43  Sanana
1 159 18-07-2019 22:39:57  Kirian
2 222 16-07-2019 16:16:36  sgluk
59 Мой Veno 503  mikhAN
96 2806 10-07-2019 17:59:24  mikhAN
3 133 05-07-2019 13:03:01  Andy52280
3 260 05-07-2019 10:30:50  qump
132 7863 03-07-2019 19:31:39  igordad
19 492 24-06-2019 13:29:16  igordad
12 288 06-06-2019 23:25:05  АндрейKosiv
2 199 03-06-2019 16:48:51  Andy52280
1 194 27-05-2019 02:42:37  ИгорьМ
9 272 25-05-2019 17:56:20  Dolflex
171 5564 24-05-2019 19:44:19  musicman3
283 11206 14-05-2019 07:57:39  esb
7 272 07-05-2019 13:02:02  Kuz
2 215 07-05-2019 12:59:07  Kuz
0 93 03-05-2019 09:57:22  Op023
12 356 02-05-2019 16:59:51  Fredi1903
236 23375 30-04-2019 12:06:13  miamifan91
75 контроллер TL-403  Алексей Степанов
5 149 29-04-2019 18:38:22  Сергеич
148 5414 16-04-2019 17:19:23  WandereR
4 222 10-04-2019 10:19:31  Kuz
37 2068 09-04-2019 22:53:04  musicman3
4 144 06-04-2019 10:49:10  Andy52280
121 4602 05-04-2019 09:04:27  esb

Вы здесь » Форум клана ЧПУшников » Лазерные станки